East New Market, Maryland
Current Conditions -  °F | °C
As of 2:51 AM on Thursday 23 Oct 2014 (Local Time) from KCGE Reporting Station
Overcast Overcast  
Wind Chill: 55°   Ceiling: 2900
Heat Index: 55°   Visibility: 0mi
Dew Point: 45°   Wind: 16mph
Humidity: 67%   Direction: 310°NW
Pressure: 29.81"   Gusts: 25mph
Location:  38.6°N, 75.93°W
Report Text: KCGE 230651Z AUTO 31014G22KT M1/4SM OVC029 13/07 A2981 RMK AO1
Loading
Personal Weather Stations






























Interactive Weather Map
Tropical Storm Tracking
New forecast layout! Learn more

10-Day Weather Forecast

Advertisements
Track Severe Weather on mobile